Time;durP1;ratioP1;P1;durP2;ratioP2;P2;SDS_P1;SDS_P2;PMS_P1;PMS_P2;Temp;Humidity;BMP_temperature;BMP_pressure;BME280_temperature;BME280_humidity;BME280_pressure;Samples;Min_cycle;Max_cycle;Signal;HPM_P1;HPM_P2
2022/04/03 00:01:43;;;;;;;15.25;6.25;;;;;;;;;;6283496;22;20022;-90
2022/04/03 00:04:11;;;;;;;14.07;6.68;;;;;;;;;;6247977;22;20024;-89
2022/04/03 00:06:39;;;;;;;14.07;6.20;;;;;;;;;;6249053;22;20016;-90
2022/04/03 00:09:07;;;;;;;12.43;6.32;;;;;;;;;;6259267;22;20439;-90
2022/04/03 00:11:35;;;;;;;13.88;6.10;;;;;;;;;;6285564;22;20012;-89
2022/04/03 00:14:03;;;;;;;12.90;6.88;;;;;;;;;;6249219;22;20028;-89
2022/04/03 00:16:32;;;;;;;11.82;5.70;;;;;;;;;;6284463;22;20020;-87
2022/04/03 00:19:03;;;;;;;13.00;6.00;;;;;;;;;;6284121;22;20201;-87
2022/04/03 00:21:31;;;;;;;12.45;6.10;;;;;;;;;;6285168;22;20090;-88
2022/04/03 00:24:00;;;;;;;9.63;5.22;;;;;;;;;;6284245;22;20039;-90
2022/04/03 00:26:29;;;;;;;9.68;5.55;;;;;;;;;;6284225;22;20023;-89
2022/04/03 00:28:57;;;;;;;10.25;5.22;;;;;;;;;;6284126;22;20022;-90
2022/04/03 00:31:25;;;;;;;14.07;5.78;;;;;;;;;;6284829;22;20034;-90
2022/04/03 00:33:53;;;;;;;10.52;5.18;;;;;;;;;;6199705;22;20019;-89
2022/04/03 00:36:21;;;;;;;12.98;5.32;;;;;;;;;;6285122;22;20020;-89
2022/04/03 00:38:49;;;;;;;11.27;5.18;;;;;;;;;;6201688;22;20346;-90
2022/04/03 00:41:18;;;;;;;10.65;5.07;;;;;;;;;;6293573;22;20016;-90
2022/04/03 00:43:45;;;;;;;9.90;5.13;;;;;;;;;;6312546;22;20059;-90
2022/04/03 00:46:17;;;;;;;11.10;5.20;;;;;;;;;;6303289;22;19999;-90
2022/04/03 00:48:47;;;;;;;9.68;4.80;;;;;;;;;;6288661;22;20024;-91
2022/04/03 00:51:15;;;;;;;9.95;4.93;;;;;;;;;;6312316;22;20018;-90
2022/04/03 00:53:43;;;;;;;10.93;5.60;;;;;;;;;;6313284;22;20026;-90
2022/04/03 00:56:11;;;;;;;13.18;6.85;;;;;;;;;;6312485;22;20004;-90
2022/04/03 00:58:39;;;;;;;12.65;6.10;;;;;;;;;;6274672;22;20023;-89
2022/04/03 01:01:07;;;;;;;10.18;4.80;;;;;;;;;;6267211;22;20023;-90
2022/04/03 01:03:35;;;;;;;9.98;4.47;;;;;;;;;;6282903;22;20019;-90
2022/04/03 01:06:05;;;;;;;10.40;5.22;;;;;;;;;;6248280;22;20051;-90
2022/04/03 01:08:33;;;;;;;11.75;5.10;;;;;;;;;;6282690;22;20024;-89
2022/04/03 01:11:01;;;;;;;12.13;5.53;;;;;;;;;;6272362;22;20023;-89
2022/04/03 01:13:29;;;;;;;9.85;5.15;;;;;;;;;;6247409;22;20030;-90
2022/04/03 01:16:01;;;;;;;13.63;4.30;;;;;;;;;;6283637;22;20079;-89
2022/04/03 01:18:29;;;;;;;10.70;4.90;;;;;;;;;;6197573;22;20430;-90
2022/04/03 01:20:57;;;;;;;14.02;6.07;;;;;;;;;;6282532;22;20031;-89
2022/04/03 01:23:25;;;;;;;10.85;5.25;;;;;;;;;;6257103;22;20046;-90
2022/04/03 01:25:53;;;;;;;13.20;5.53;;;;;;;;;;6257377;22;20020;-90
2022/04/03 01:28:23;;;;;;;17.23;5.75;;;;;;;;;;6247221;22;20102;-90
2022/04/03 01:30:51;;;;;;;16.60;5.45;;;;;;;;;;6281804;22;20307;-90
2022/04/03 01:33:19;;;;;;;7.93;4.40;;;;;;;;;;6282733;22;20012;-90
2022/04/03 01:35:47;;;;;;;11.05;5.57;;;;;;;;;;6282477;22;20023;-90
2022/04/03 01:38:15;;;;;;;15.95;5.47;;;;;;;;;;6257268;22;20039;-90
2022/04/03 01:40:43;;;;;;;14.35;5.75;;;;;;;;;;6246587;22;20028;-90
2022/04/03 01:43:11;;;;;;;12.73;5.03;;;;;;;;;;6246893;22;20126;-90
2022/04/03 01:45:40;;;;;;;10.27;5.25;;;;;;;;;;6283845;22;20043;-91
2022/04/03 01:48:08;;;;;;;8.38;4.80;;;;;;;;;;6282684;22;20351;-90
2022/04/03 01:50:35;;;;;;;10.93;4.70;;;;;;;;;;6271169;22;20051;-90
2022/04/03 01:53:04;;;;;;;12.50;4.80;;;;;;;;;;6283968;22;20074;-91
2022/04/03 01:55:31;;;;;;;9.88;4.40;;;;;;;;;;6246373;22;20449;-90
2022/04/03 01:58:00;;;;;;;8.57;4.30;;;;;;;;;;6271610;22;20019;-90
2022/04/03 02:00:27;;;;;;;10.10;4.97;;;;;;;;;;6283233;22;20022;-90
2022/04/03 02:02:55;;;;;;;11.80;5.40;;;;;;;;;;6248372;22;20525;-90
2022/04/03 02:05:23;;;;;;;11.50;5.10;;;;;;;;;;6282393;22;20019;-90
2022/04/03 02:07:51;;;;;;;11.77;5.15;;;;;;;;;;6281998;22;20035;-90
2022/04/03 02:10:19;;;;;;;13.43;5.40;;;;;;;;;;6281441;22;20078;-89
2022/04/03 02:12:47;;;;;;;9.55;5.13;;;;;;;;;;6281611;22;20015;-90
2022/04/03 02:15:17;;;;;;;10.85;4.82;;;;;;;;;;6283400;22;20094;-90
2022/04/03 02:17:45;;;;;;;12.15;5.63;;;;;;;;;;6245779;22;20127;-90
2022/04/03 02:20:13;;;;;;;10.35;4.80;;;;;;;;;;6256527;22;20024;-90
2022/04/03 02:22:41;;;;;;;15.55;6.07;;;;;;;;;;6282833;22;20023;-90
2022/04/03 02:25:11;;;;;;;12.27;5.03;;;;;;;;;;6281443;22;20126;-90
2022/04/03 02:27:41;;;;;;;12.88;4.88;;;;;;;;;;6281320;22;20102;-90
2022/04/03 02:30:09;;;;;;;11.10;4.82;;;;;;;;;;6256611;22;20083;-90
2022/04/03 02:32:38;;;;;;;10.43;4.97;;;;;;;;;;6282682;22;20035;-89
2022/04/03 02:35:07;;;;;;;14.98;5.95;;;;;;;;;;6282772;22;20019;-90
2022/04/03 02:37:40;;;;;;;20.17;5.68;;;;;;;;;;6282799;22;20027;-90
2022/04/03 02:40:12;;;;;;;9.55;5.20;;;;;;;;;;6245925;22;20020;-90
2022/04/03 02:42:41;;;;;;;9.82;5.43;;;;;;;;;;6281476;22;20028;-90
2022/04/03 02:45:13;;;;;;;8.95;5.53;;;;;;;;;;6280434;22;20019;-90
2022/04/03 02:47:50;;;;;;;13.10;5.78;;;;;;;;;;6246522;22;20031;-91
2022/04/03 02:50:19;;;;;;;10.15;5.07;;;;;;;;;;6256156;22;20043;-90
2022/04/03 02:52:48;;;;;;;9.85;5.90;;;;;;;;;;6256877;22;20078;-90
2022/04/03 02:55:19;;;;;;;12.00;5.70;;;;;;;;;;6283054;22;20020;-90
2022/04/03 02:57:47;;;;;;;11.35;5.72;;;;;;;;;;6221966;22;20035;-90
2022/04/03 03:00:17;;;;;;;12.68;5.43;;;;;;;;;;6282135;22;20020;-90
2022/04/03 03:02:51;;;;;;;9.82;4.97;;;;;;;;;;6284572;22;20021;-90
2022/04/03 03:05:19;;;;;;;13.45;5.47;;;;;;;;;;6284237;22;20020;-90
2022/04/03 03:07:48;;;;;;;8.50;4.95;;;;;;;;;;6284617;22;20098;-91
2022/04/03 03:10:17;;;;;;;11.45;5.50;;;;;;;;;;6285899;22;20098;-89
2022/04/03 03:12:46;;;;;;;12.27;5.43;;;;;;;;;;6285191;22;20012;-90
2022/04/03 03:15:14;;;;;;;14.10;5.25;;;;;;;;;;6285358;22;20031;-90
2022/04/03 03:17:41;;;;;;;8.13;4.53;;;;;;;;;;6295838;22;20014;-90
2022/04/03 03:20:11;;;;;;;13.32;5.25;;;;;;;;;;6311435;22;20099;-90
2022/04/03 03:22:40;;;;;;;12.48;4.95;;;;;;;;;;6313765;22;20008;-90
2022/04/03 03:25:07;;;;;;;11.65;5.30;;;;;;;;;;6252814;22;20019;-91
2022/04/03 03:27:36;;;;;;;12.43;5.22;;;;;;;;;;6313912;22;20020;-91
2022/04/03 03:30:04;;;;;;;9.43;5.25;;;;;;;;;;6314343;22;20007;-91
2022/04/03 03:32:31;;;;;;;8.25;4.85;;;;;;;;;;6287372;22;20020;-89
2022/04/03 03:34:59;;;;;;;12.80;4.80;;;;;;;;;;6315035;22;20114;-90
2022/04/03 03:37:27;;;;;;;7.57;4.47;;;;;;;;;;6288927;22;20012;-90
2022/04/03 03:39:55;;;;;;;8.73;4.05;;;;;;;;;;6314325;22;20019;-89
2022/04/03 03:42:24;;;;;;;13.68;4.32;;;;;;;;;;6314840;22;20010;-90
2022/04/03 03:44:51;;;;;;;11.40;4.95;;;;;;;;;;6304063;22;20011;-90
2022/04/03 03:47:21;;;;;;;9.07;3.95;;;;;;;;;;6306984;22;20015;-89
2022/04/03 03:49:49;;;;;;;15.90;4.90;;;;;;;;;;6288755;22;20000;-89
2022/04/03 03:52:17;;;;;;;11.30;5.28;;;;;;;;;;6314385;22;20027;-89
2022/04/03 03:54:47;;;;;;;8.82;3.83;;;;;;;;;;6315208;22;20008;-90
2022/04/03 03:57:17;;;;;;;8.02;4.15;;;;;;;;;;6271872;22;20074;-89
2022/04/03 03:59:45;;;;;;;11.63;4.90;;;;;;;;;;6286666;22;20046;-90
2022/04/03 04:02:13;;;;;;;10.30;4.60;;;;;;;;;;6250102;22;20028;-90
2022/04/03 04:04:41;;;;;;;8.32;3.72;;;;;;;;;;6284603;22;20044;-91
2022/04/03 04:07:09;;;;;;;9.18;4.18;;;;;;;;;;6223517;22;20031;-90
2022/04/03 04:09:39;;;;;;;13.00;3.88;;;;;;;;;;6273599;22;20028;-90
2022/04/03 04:12:09;;;;;;;8.70;4.15;;;;;;;;;;6272648;22;20027;-90
2022/04/03 04:14:40;;;;;;;7.32;4.03;;;;;;;;;;6284060;22;20486;-89
2022/04/03 04:17:09;;;;;;;7.75;3.97;;;;;;;;;;6284562;22;20023;-90
2022/04/03 04:19:38;;;;;;;7.35;4.07;;;;;;;;;;6285943;22;20070;-89
2022/04/03 04:22:05;;;;;;;7.20;3.70;;;;;;;;;;6284117;22;20020;-89
2022/04/03 04:24:33;;;;;;;6.70;3.63;;;;;;;;;;6284024;22;20022;-90
2022/04/03 04:27:01;;;;;;;12.02;3.80;;;;;;;;;;6284700;22;20545;-91
2022/04/03 04:29:32;;;;;;;9.55;4.00;;;;;;;;;;6284766;22;20043;-89
2022/04/03 04:32:01;;;;;;;7.82;3.70;;;;;;;;;;6283696;22;20051;-90
2022/04/03 04:34:29;;;;;;;7.03;3.65;;;;;;;;;;6283680;22;20019;-89
2022/04/03 04:36:58;;;;;;;7.15;3.80;;;;;;;;;;6283559;22;20022;-90
2022/04/03 04:39:25;;;;;;;8.00;3.88;;;;;;;;;;6283708;22;20043;-90
2022/04/03 04:41:53;;;;;;;6.28;3.50;;;;;;;;;;6258543;22;20074;-90
2022/04/03 04:44:21;;;;;;;5.22;3.38;;;;;;;;;;6248453;22;20082;-90
2022/04/03 04:46:49;;;;;;;6.95;3.70;;;;;;;;;;6286306;22;20015;-88
2022/04/03 04:49:17;;;;;;;7.32;3.63;;;;;;;;;;6283920;22;20029;-88
2022/04/03 04:52:17;;;;;;;9.32;3.58;;;;;;;;;;6273636;22;20034;-91
2022/04/03 04:54:45;;;;;;;6.88;3.63;;;;;;;;;;6223517;22;20351;-92
2022/04/03 04:57:13;;;;;;;8.52;3.88;;;;;;;;;;6223772;22;20451;-91
2022/04/03 04:59:42;;;;;;;13.40;4.05;;;;;;;;;;6248646;22;20027;-91
2022/04/03 05:02:09;;;;;;;7.55;3.08;;;;;;;;;;6258488;22;20019;-91
2022/04/03 05:04:37;;;;;;;9.48;4.00;;;;;;;;;;6258685;22;20026;-92
2022/04/03 05:07:05;;;;;;;6.35;3.80;;;;;;;;;;6259266;22;20071;-93
2022/04/03 05:09:47;;;;;;;9.05;3.95;;;;;;;;;;6258033;22;20023;-91
2022/04/03 05:12:15;;;;;;;7.60;3.75;;;;;;;;;;6282750;22;20323;-85
2022/04/03 05:14:43;;;;;;;5.75;3.38;;;;;;;;;;6284461;22;20058;-85
2022/04/03 05:17:12;;;;;;;5.93;3.25;;;;;;;;;;6285028;22;20038;-84
2022/04/03 05:19:41;;;;;;;6.88;3.58;;;;;;;;;;6284140;22;20099;-83
2022/04/03 05:22:08;;;;;;;7.93;3.92;;;;;;;;;;6284290;22;20019;-85
2022/04/03 05:24:35;;;;;;;6.57;3.47;;;;;;;;;;6285652;22;20466;-83
2022/04/03 05:27:05;;;;;;;6.53;3.78;;;;;;;;;;6288311;22;20020;-83
2022/04/03 05:29:34;;;;;;;5.07;3.33;;;;;;;;;;6287020;22;20016;-83
2022/04/03 05:32:02;;;;;;;7.85;3.83;;;;;;;;;;6287048;22;20074;-81
2022/04/03 05:34:29;;;;;;;7.05;3.60;;;;;;;;;;6285201;22;20021;-84
2022/04/03 05:36:57;;;;;;;7.20;3.70;;;;;;;;;;6283170;22;20075;-84
2022/04/03 05:39:25;;;;;;;9.98;3.65;;;;;;;;;;6284748;22;20089;-84
2022/04/03 05:41:55;;;;;;;5.43;3.67;;;;;;;;;;6285823;22;20062;-83
2022/04/03 05:44:24;;;;;;;6.82;3.60;;;;;;;;;;6284206;22;20011;-84
2022/04/03 05:46:51;;;;;;;8.75;3.40;;;;;;;;;;6283641;22;20186;-85
2022/04/03 05:49:19;;;;;;;6.07;3.47;;;;;;;;;;6287021;22;20020;-84
2022/04/03 05:51:47;;;;;;;8.02;3.50;;;;;;;;;;6276299;22;20422;-83
2022/04/03 05:54:15;;;;;;;6.85;3.13;;;;;;;;;;6288335;22;20467;-84
2022/04/03 05:56:44;;;;;;;6.68;3.60;;;;;;;;;;6285077;22;20019;-83
2022/04/03 05:59:12;;;;;;;10.80;3.80;;;;;;;;;;6286182;22;20532;-83
2022/04/03 06:01:40;;;;;;;6.22;3.47;;;;;;;;;;6285955;22;20020;-83
2022/04/03 06:04:07;;;;;;;8.93;3.45;;;;;;;;;;6276995;22;20015;-81
2022/04/03 06:06:35;;;;;;;6.88;3.95;;;;;;;;;;6286197;22;20046;-82
2022/04/03 06:09:04;;;;;;;5.85;3.40;;;;;;;;;;6286976;22;20015;-82
2022/04/03 06:11:31;;;;;;;9.77;3.60;;;;;;;;;;6284930;22;20024;-82
2022/04/03 06:14:00;;;;;;;8.05;3.80;;;;;;;;;;6286497;22;20462;-82
2022/04/03 06:16:28;;;;;;;10.85;3.40;;;;;;;;;;6285281;22;20071;-81
2022/04/03 06:18:55;;;;;;;10.73;4.13;;;;;;;;;;6286845;22;20047;-81
2022/04/03 06:21:23;;;;;;;6.65;3.40;;;;;;;;;;6287461;22;20020;-80
2022/04/03 06:23:54;;;;;;;5.20;3.35;;;;;;;;;;6273609;22;20030;-80
2022/04/03 06:26:21;;;;;;;8.70;3.22;;;;;;;;;;6285578;22;20451;-80
2022/04/03 06:28:49;;;;;;;7.32;3.50;;;;;;;;;;6273841;22;20020;-81
2022/04/03 06:31:17;;;;;;;5.78;3.17;;;;;;;;;;6283762;22;20019;-80
2022/04/03 06:33:45;;;;;;;8.75;3.47;;;;;;;;;;6283600;22;20035;-80
2022/04/03 06:36:13;;;;;;;7.28;3.47;;;;;;;;;;6283738;22;20031;-81
2022/04/03 06:38:41;;;;;;;6.63;3.55;;;;;;;;;;6287039;22;20027;-84
2022/04/03 06:41:09;;;;;;;5.95;3.13;;;;;;;;;;6288337;22;20054;-84
2022/04/03 06:43:37;;;;;;;7.57;3.80;;;;;;;;;;6287093;22;20442;-84
2022/04/03 06:46:05;;;;;;;5.43;3.40;;;;;;;;;;6285746;22;20091;-82
2022/04/03 06:48:34;;;;;;;8.68;3.47;;;;;;;;;;6286545;22;20027;-81
2022/04/03 06:51:02;;;;;;;11.68;3.78;;;;;;;;;;6274760;22;20098;-81
2022/04/03 06:53:29;;;;;;;8.45;3.63;;;;;;;;;;6288338;22;20023;-82
2022/04/03 06:55:58;;;;;;;7.55;3.10;;;;;;;;;;6287946;22;20019;-82
2022/04/03 06:58:25;;;;;;;6.38;3.33;;;;;;;;;;6288411;22;20026;-82
2022/04/03 07:00:53;;;;;;;8.45;3.15;;;;;;;;;;6288443;22;20094;-81
2022/04/03 07:03:21;;;;;;;5.70;3.05;;;;;;;;;;6286809;22;20015;-82
2022/04/03 07:05:49;;;;;;;6.90;3.00;;;;;;;;;;6287807;22;20027;-82
2022/04/03 07:08:17;;;;;;;5.85;2.88;;;;;;;;;;6286679;22;20020;-83
2022/04/03 07:10:46;;;;;;;5.10;3.10;;;;;;;;;;6249418;22;20048;-82
2022/04/03 07:13:13;;;;;;;4.80;2.45;;;;;;;;;;6285944;22;20028;-83
2022/04/03 07:15:42;;;;;;;6.03;2.80;;;;;;;;;;6288066;22;20023;-83
2022/04/03 07:18:09;;;;;;;10.20;3.03;;;;;;;;;;6287545;22;20011;-83
2022/04/03 07:20:37;;;;;;;9.40;2.90;;;;;;;;;;6287788;22;20103;-82
2022/04/03 07:23:05;;;;;;;6.70;2.53;;;;;;;;;;6287812;22;20062;-83
2022/04/03 07:25:34;;;;;;;5.78;2.53;;;;;;;;;;6284336;22;20626;-83
2022/04/03 07:28:04;;;;;;;7.45;2.85;;;;;;;;;;6284352;22;20012;-83
2022/04/03 07:30:34;;;;;;;4.35;2.38;;;;;;;;;;6285756;22;20015;-82
2022/04/03 07:33:01;;;;;;;5.03;2.40;;;;;;;;;;6283302;22;20099;-82
2022/04/03 07:35:29;;;;;;;15.50;2.95;;;;;;;;;;6284711;22;20020;-82
2022/04/03 07:37:57;;;;;;;4.70;2.22;;;;;;;;;;6257443;22;20016;-82
2022/04/03 07:40:26;;;;;;;6.80;2.70;;;;;;;;;;6285045;22;20019;-83
2022/04/03 07:43:18;;;;;;;5.85;2.78;;;;;;;;;;6285028;22;20019;-82
2022/04/03 07:45:47;;;;;;;4.05;2.47;;;;;;;;;;6286077;22;20028;-82
2022/04/03 07:48:16;;;;;;;9.35;2.80;;;;;;;;;;6274011;22;20023;-83
2022/04/03 07:50:45;;;;;;;6.93;2.75;;;;;;;;;;6274075;22;20169;-82
2022/04/03 07:53:13;;;;;;;4.50;2.35;;;;;;;;;;6284105;22;20028;-80
2022/04/03 07:55:41;;;;;;;5.13;2.80;;;;;;;;;;6286678;22;20024;-83
2022/04/03 07:58:09;;;;;;;6.38;2.85;;;;;;;;;;6292601;22;20030;-83
2022/04/03 08:00:37;;;;;;;9.40;3.25;;;;;;;;;;6286109;22;20026;-82
2022/04/03 08:03:05;;;;;;;11.15;4.55;;;;;;;;;;6287089;22;20509;-83
2022/04/03 08:05:34;;;;;;;8.02;3.50;;;;;;;;;;6288874;22;20082;-83
2022/04/03 08:08:01;;;;;;;5.90;3.88;;;;;;;;;;6274601;22;20114;-82
2022/04/03 08:10:29;;;;;;;8.15;3.20;;;;;;;;;;6262003;22;20019;-82
2022/04/03 08:12:58;;;;;;;10.18;2.60;;;;;;;;;;6273626;22;20019;-81
2022/04/03 08:15:25;;;;;;;8.40;2.95;;;;;;;;;;6285968;22;20011;-82
2022/04/03 08:17:54;;;;;;;5.03;3.08;;;;;;;;;;6283933;22;20016;-81
2022/04/03 08:20:21;;;;;;;9.15;2.90;;;;;;;;;;6286178;22;20024;-82
2022/04/03 08:22:49;;;;;;;6.78;2.33;;;;;;;;;;6286460;22;20027;-81
2022/04/03 08:25:18;;;;;;;5.63;2.67;;;;;;;;;;6285733;22;20016;-81
2022/04/03 08:27:53;;;;;;;4.43;2.42;;;;;;;;;;6285513;22;20019;-81
2022/04/03 08:30:27;;;;;;;4.65;2.70;;;;;;;;;;6286387;22;20019;-81
2022/04/03 08:32:56;;;;;;;6.57;3.30;;;;;;;;;;6287558;22;20527;-80
2022/04/03 08:35:28;;;;;;;6.13;3.13;;;;;;;;;;6290869;22;20075;-82
2022/04/03 08:37:56;;;;;;;6.10;2.97;;;;;;;;;;6293598;22;20016;-81
2022/04/03 08:40:25;;;;;;;6.10;3.13;;;;;;;;;;6266206;22;20042;-82
2022/04/03 08:42:55;;;;;;;4.95;2.47;;;;;;;;;;6286938;22;20094;-81
2022/04/03 08:45:24;;;;;;;4.75;2.60;;;;;;;;;;6289213;22;20011;-81
2022/04/03 08:47:55;;;;;;;4.38;2.75;;;;;;;;;;6280911;22;20026;-81
2022/04/03 08:50:30;;;;;;;5.13;2.45;;;;;;;;;;6288783;22;20019;-81
2022/04/03 08:53:00;;;;;;;7.65;3.20;;;;;;;;;;6294116;22;20119;-81
2022/04/03 08:55:29;;;;;;;5.40;3.15;;;;;;;;;;6293676;22;20027;-80
2022/04/03 08:57:58;;;;;;;4.45;2.70;;;;;;;;;;6256043;22;20019;-81
2022/04/03 09:00:25;;;;;;;5.25;2.80;;;;;;;;;;6288228;22;20494;-77
2022/04/03 09:02:53;;;;;;;5.85;2.90;;;;;;;;;;6293088;22;20016;-80
2022/04/03 09:05:21;;;;;;;5.53;2.45;;;;;;;;;;6293877;22;20022;-81
2022/04/03 09:08:00;;;;;;;4.60;2.75;;;;;;;;;;6291931;22;20015;-81
2022/04/03 09:10:28;;;;;;;6.88;1.98;;;;;;;;;;6291364;22;20019;-81
2022/04/03 09:12:56;;;;;;;3.95;1.98;;;;;;;;;;6290184;22;20456;-80
2022/04/03 09:15:24;;;;;;;3.25;2.03;;;;;;;;;;6289168;22;20035;-80
2022/04/03 09:17:52;;;;;;;4.22;2.13;;;;;;;;;;6250232;22;20019;-80
2022/04/03 09:20:26;;;;;;;6.65;2.20;;;;;;;;;;6288197;22;20548;-81
2022/04/03 09:22:59;;;;;;;3.78;2.10;;;;;;;;;;6287864;22;20016;-82
2022/04/03 09:25:32;;;;;;;6.00;2.13;;;;;;;;;;6285435;22;20016;-83
2022/04/03 09:28:02;;;;;;;6.85;2.38;;;;;;;;;;6287373;22;20392;-82
2022/04/03 09:30:49;;;;;;;5.07;2.60;;;;;;;;;;6286395;22;20025;-84
2022/04/03 09:33:20;;;;;;;5.47;2.60;;;;;;;;;;6286479;22;20019;-84
2022/04/03 09:36:08;;;;;;;7.32;2.30;;;;;;;;;;6288055;22;20015;-83
2022/04/03 09:38:36;;;;;;;5.88;2.20;;;;;;;;;;6285631;22;20043;-84
2022/04/03 09:41:05;;;;;;;4.40;1.80;;;;;;;;;;6287039;22;20015;-81
2022/04/03 09:43:35;;;;;;;7.25;2.80;;;;;;;;;;6285856;22;20382;-80
2022/04/03 09:46:05;;;;;;;9.60;2.20;;;;;;;;;;6285623;22;20095;-80
2022/04/03 09:48:41;;;;;;;6.07;2.28;;;;;;;;;;6274603;22;20020;-80
2022/04/03 09:51:19;;;;;;;5.30;2.03;;;;;;;;;;6285061;22;20023;-81
2022/04/03 09:53:49;;;;;;;6.45;1.80;;;;;;;;;;6285665;22;20331;-81
2022/04/03 09:56:22;;;;;;;6.28;2.03;;;;;;;;;;6285861;22;20090;-80
2022/04/03 09:58:49;;;;;;;5.88;2.00;;;;;;;;;;6286128;22;20071;-81
2022/04/03 10:01:21;;;;;;;5.82;2.00;;;;;;;;;;6274825;22;20043;-81
2022/04/03 10:03:51;;;;;;;8.77;1.80;;;;;;;;;;6287034;22;20472;-81
2022/04/03 10:06:18;;;;;;;6.18;1.70;;;;;;;;;;6276612;22;20069;-81
2022/04/03 10:08:47;;;;;;;3.78;1.58;;;;;;;;;;6285634;22;20012;-81
2022/04/03 10:11:16;;;;;;;7.50;1.65;;;;;;;;;;6285696;22;20012;-81
2022/04/03 10:13:44;;;;;;;4.95;1.45;;;;;;;;;;6284980;22;20074;-82
2022/04/03 10:16:12;;;;;;;6.47;1.60;;;;;;;;;;6285461;22;20455;-81
2022/04/03 10:18:40;;;;;;;2.95;1.38;;;;;;;;;;6283912;22;20082;-82
2022/04/03 10:21:23;;;;;;;3.15;1.48;;;;;;;;;;6285782;22;20046;-83
2022/04/03 10:23:56;;;;;;;4.28;1.50;;;;;;;;;;6285050;22;20028;-80
2022/04/03 10:26:24;;;;;;;5.88;1.48;;;;;;;;;;6285125;22;20020;-80
2022/04/03 10:28:56;;;;;;;6.30;1.92;;;;;;;;;;6283691;22;20068;-80
2022/04/03 10:31:23;;;;;;;3.53;1.75;;;;;;;;;;6283758;22;20025;-81
2022/04/03 10:33:52;;;;;;;7.75;1.80;;;;;;;;;;6283956;22;20016;-82
2022/04/03 10:36:27;;;;;;;3.95;1.45;;;;;;;;;;6284945;22;20016;-81
2022/04/03 10:38:58;;;;;;;4.15;1.30;;;;;;;;;;6284415;22;20043;-82
2022/04/03 10:41:29;;;;;;;6.70;1.50;;;;;;;;;;6284376;22;20413;-82
2022/04/03 10:44:22;;;;;;;3.03;1.50;;;;;;;;;;6284435;22;20020;-81
2022/04/03 10:47:01;;;;;;;5.53;1.38;;;;;;;;;;6283836;22;20402;-82
2022/04/03 10:49:40;;;;;;;5.78;1.67;;;;;;;;;;6284239;22;20044;-82
2022/04/03 10:52:09;;;;;;;6.60;1.40;;;;;;;;;;6283846;22;20020;-81
2022/04/03 10:54:49;;;;;;;5.47;1.00;;;;;;;;;;6283016;22;20050;-81
2022/04/03 10:57:35;;;;;;;5.07;1.08;;;;;;;;;;6284448;22;20043;-80
2022/04/03 11:00:10;;;;;;;2.45;0.98;;;;;;;;;;6285705;22;20538;-81
2022/04/03 11:02:49;;;;;;;3.28;0.88;;;;;;;;;;6284844;22;20071;-80
2022/04/03 11:05:22;;;;;;;2.90;1.00;;;;;;;;;;6284262;22;20018;-81
2022/04/03 11:07:53;;;;;;;3.05;1.33;;;;;;;;;;6285426;22;20024;-80
2022/04/03 11:10:45;;;;;;;2.47;1.02;;;;;;;;;;6284421;22;20418;-80
2022/04/03 11:13:17;;;;;;;3.83;1.90;;;;;;;;;;6283787;22;20027;-80
2022/04/03 11:15:45;;;;;;;5.25;1.50;;;;;;;;;;6282664;22;20393;-80
2022/04/03 11:18:35;;;;;;;2.85;1.33;;;;;;;;;;6247563;22;20023;-80
2022/04/03 11:21:13;;;;;;;2.70;0.98;;;;;;;;;;6274592;22;20034;-81
2022/04/03 11:24:06;;;;;;;2.40;1.00;;;;;;;;;;6261063;22;20118;-81
2022/04/03 11:26:35;;;;;;;4.00;1.77;;;;;;;;;;6260266;22;20027;-82
2022/04/03 11:29:05;;;;;;;4.05;1.65;;;;;;;;;;6260352;22;20031;-81
2022/04/03 11:31:34;;;;;;;3.83;1.02;;;;;;;;;;6286686;22;20031;-85
2022/04/03 11:34:02;;;;;;;2.05;0.77;;;;;;;;;;6285457;22;20024;-83
2022/04/03 11:36:31;;;;;;;1.92;0.93;;;;;;;;;;6285969;22;20095;-81
2022/04/03 11:39:04;;;;;;;2.00;0.88;;;;;;;;;;6287080;22;20050;-82
2022/04/03 11:41:35;;;;;;;2.33;0.80;;;;;;;;;;6286401;22;20020;-80
2022/04/03 11:44:13;;;;;;;1.67;0.63;;;;;;;;;;6285294;22;20020;-80
2022/04/03 11:46:44;;;;;;;3.03;1.00;;;;;;;;;;6282464;22;20091;-80
2022/04/03 11:49:18;;;;;;;1.80;0.82;;;;;;;;;;6284672;22;20023;-79
2022/04/03 11:51:47;;;;;;;2.70;1.08;;;;;;;;;;6284358;22;20023;-80
2022/04/03 11:54:15;;;;;;;1.48;0.70;;;;;;;;;;6284941;22;20054;-82
2022/04/03 11:56:41;;;;;;;1.65;0.90;;;;;;;;;;6284578;22;20822;-80
2022/04/03 11:59:14;;;;;;;3.38;1.02;;;;;;;;;;6273722;22;20078;-80
2022/04/03 12:01:49;;;;;;;5.82;1.10;;;;;;;;;;6285273;22;20498;-80
2022/04/03 12:04:19;;;;;;;4.10;1.27;;;;;;;;;;6285290;22;20075;-84
2022/04/03 12:06:57;;;;;;;3.97;1.65;;;;;;;;;;6284453;22;20431;-81
2022/04/03 12:09:24;;;;;;;4.20;1.90;;;;;;;;;;6285313;22;20023;-80
2022/04/03 12:11:53;;;;;;;4.60;1.40;;;;;;;;;;6274256;22;20198;-81
2022/04/03 12:14:31;;;;;;;2.55;1.10;;;;;;;;;;6281925;22;20027;-79
2022/04/03 12:17:02;;;;;;;8.32;2.03;;;;;;;;;;6282593;22;20012;-79
2022/04/03 12:19:35;;;;;;;2.67;1.10;;;;;;;;;;6272733;22;20028;-79
2022/04/03 12:22:04;;;;;;;7.18;1.02;;;;;;;;;;6282114;22;20105;-79
2022/04/03 12:24:33;;;;;;;5.78;1.27;;;;;;;;;;6283428;22;20023;-80
2022/04/03 12:27:05;;;;;;;14.70;5.43;;;;;;;;;;6282828;22;20031;-80
2022/04/03 12:29:35;;;;;;;6.55;2.78;;;;;;;;;;6282233;22;20022;-80
2022/04/03 12:32:12;;;;;;;7.53;2.83;;;;;;;;;;6284131;22;20039;-81
2022/04/03 12:34:44;;;;;;;5.07;2.38;;;;;;;;;;6283855;22;20017;-80
2022/04/03 12:37:12;;;;;;;1.90;0.90;;;;;;;;;;6283131;22;20098;-79
2022/04/03 12:39:44;;;;;;;2.42;0.82;;;;;;;;;;6283608;22;20012;-79
2022/04/03 12:42:17;;;;;;;1.75;0.95;;;;;;;;;;6285813;22;20015;-81
2022/04/03 12:44:45;;;;;;;1.45;0.70;;;;;;;;;;6287276;22;20015;-82
2022/04/03 12:47:15;;;;;;;3.78;0.80;;;;;;;;;;6284257;22;20410;-82
2022/04/03 12:50:12;;;;;;;1.52;0.90;;;;;;;;;;6285972;22;20016;-83
2022/04/03 12:52:53;;;;;;;1.55;0.90;;;;;;;;;;6131767;23;20133;-80
2022/04/03 12:55:24;;;;;;;3.05;1.13;;;;;;;;;;6161449;23;20031;-80
2022/04/03 13:00:44;;;;;;;1.63;1.05;;;;;;;;;;6161091;23;20451;-80
2022/04/03 13:03:39;;;;;;;4.82;1.30;;;;;;;;;;6160363;23;20028;-80
2022/04/03 13:06:20;;;;;;;2.13;1.00;;;;;;;;;;6160651;23;20103;-82
2022/04/03 13:08:53;;;;;;;6.13;1.50;;;;;;;;;;6111498;23;20029;-81
2022/04/03 13:11:45;;;;;;;2.95;1.60;;;;;;;;;;6159708;23;20052;-81
2022/04/03 13:14:29;;;;;;;3.28;1.48;;;;;;;;;;6159428;23;20035;-80
2022/04/03 13:17:01;;;;;;;4.57;1.48;;;;;;;;;;6160254;23;20096;-81
2022/04/03 13:19:32;;;;;;;4.25;1.50;;;;;;;;;;6160687;23;20095;-81
2022/04/03 13:22:01;;;;;;;3.35;1.60;;;;;;;;;;6160937;23;20067;-81
2022/04/03 13:24:29;;;;;;;3.72;1.35;;;;;;;;;;6162689;23;20025;-81
2022/04/03 13:26:57;;;;;;;1.88;1.10;;;;;;;;;;6163377;23;20032;-81
2022/04/03 13:29:26;;;;;;;2.42;0.90;;;;;;;;;;6202301;22;20030;-80
2022/04/03 13:31:56;;;;;;;3.92;1.55;;;;;;;;;;6282470;22;20015;-80
2022/04/03 13:34:24;;;;;;;2.65;1.42;;;;;;;;;;6244877;22;20028;-80
2022/04/03 13:36:52;;;;;;;7.38;0.98;;;;;;;;;;6282421;22;20020;-80
2022/04/03 13:39:20;;;;;;;5.22;1.20;;;;;;;;;;6282507;22;20019;-80
2022/04/03 13:41:48;;;;;;;1.75;1.00;;;;;;;;;;6283303;22;20024;-80
2022/04/03 13:44:18;;;;;;;2.25;0.93;;;;;;;;;;6282962;22;20020;-79
2022/04/03 13:46:46;;;;;;;2.35;1.10;;;;;;;;;;6277424;22;20018;-79
2022/04/03 13:49:14;;;;;;;4.10;0.90;;;;;;;;;;6281573;22;20034;-80
2022/04/03 13:51:41;;;;;;;1.88;0.80;;;;;;;;;;6284826;22;20235;-79
2022/04/03 13:54:09;;;;;;;3.13;0.85;;;;;;;;;;6292572;22;20026;-80
2022/04/03 13:56:37;;;;;;;2.15;1.00;;;;;;;;;;6275740;22;20047;-80
2022/04/03 13:59:05;;;;;;;2.25;0.70;;;;;;;;;;6286902;22;20049;-80
2022/04/03 14:01:35;;;;;;;1.17;0.77;;;;;;;;;;6271975;22;20083;-81
2022/04/03 14:04:04;;;;;;;2.17;1.52;;;;;;;;;;6285266;22;20669;-80
2022/04/03 14:06:31;;;;;;;4.88;1.10;;;;;;;;;;6285076;22;20020;-80
2022/04/03 14:08:59;;;;;;;2.00;1.10;;;;;;;;;;6286102;22;20094;-80
2022/04/03 14:11:27;;;;;;;3.35;0.95;;;;;;;;;;6291232;22;20019;-79
2022/04/03 14:13:55;;;;;;;3.17;0.90;;;;;;;;;;6291040;22;20567;-82
2022/04/03 14:16:23;;;;;;;2.20;0.85;;;;;;;;;;6289206;22;20035;-79
2022/04/03 14:18:51;;;;;;;1.02;0.70;;;;;;;;;;6282871;22;20015;-79
2022/04/03 14:21:25;;;;;;;1.15;0.75;;;;;;;;;;6282858;22;20619;-79
2022/04/03 14:23:51;;;;;;;2.80;1.00;;;;;;;;;;6271895;22;20022;-80
2022/04/03 14:26:19;;;;;;;1.80;0.73;;;;;;;;;;6283181;22;20012;-80
2022/04/03 14:28:47;;;;;;;1.70;0.90;;;;;;;;;;6283346;22;20019;-80
2022/04/03 14:31:16;;;;;;;6.15;1.15;;;;;;;;;;6271793;22;20047;-80
2022/04/03 14:33:44;;;;;;;3.60;0.90;;;;;;;;;;6283965;22;20019;-80
2022/04/03 14:36:13;;;;;;;2.88;1.20;;;;;;;;;;6284284;22;20011;-79
2022/04/03 14:38:41;;;;;;;2.22;1.10;;;;;;;;;;6283630;22;20098;-79
2022/04/03 14:41:11;;;;;;;1.80;0.88;;;;;;;;;;6282587;22;20015;-84
2022/04/03 14:43:40;;;;;;;4.55;1.30;;;;;;;;;;6282506;22;20023;-80
2022/04/03 14:46:07;;;;;;;1.75;0.90;;;;;;;;;;6282730;22;20400;-79
2022/04/03 14:48:35;;;;;;;5.10;1.10;;;;;;;;;;6282888;22;20046;-79
2022/04/03 14:51:03;;;;;;;4.63;0.80;;;;;;;;;;6280021;22;20020;-79
2022/04/03 14:53:31;;;;;;;2.28;0.90;;;;;;;;;;6281721;22;20015;-79
2022/04/03 14:56:01;;;;;;;4.07;1.05;;;;;;;;;;6282746;22;20346;-80
2022/04/03 14:58:30;;;;;;;5.55;0.90;;;;;;;;;;6273974;22;20019;-79
2022/04/03 15:00:57;;;;;;;3.28;1.02;;;;;;;;;;6282466;22;20043;-79